Time;durP1;ratioP1;P1;durP2;ratioP2;P2;SDS_P1;SDS_P2;PMS_P1;PMS_P2;Temp;Humidity;BMP_temperature;BMP_pressure;BME280_temperature;BME280_humidity;BME280_pressure;Samples;Min_cycle;Max_cycle;Signal;HPM_P1;HPM_P2
2020/12/22 00:00:41;;;;;;;18.33;12.43;;;;;;;;;;5095704;28;20470;-70
2020/12/22 00:03:07;;;;;;;18.98;11.85;;;;;;;;;;5095812;28;20020;-70
2020/12/22 00:05:33;;;;;;;18.55;12.80;;;;;;;;;;5095694;28;20118;-70
2020/12/22 00:07:59;;;;;;;18.85;11.98;;;;;;;;;;5095863;28;20031;-69
2020/12/22 00:10:25;;;;;;;19.52;12.77;;;;;;;;;;5095690;28;20024;-72
2020/12/22 00:12:51;;;;;;;18.45;12.45;;;;;;;;;;5113737;28;20023;-70
2020/12/22 00:15:17;;;;;;;17.13;12.18;;;;;;;;;;5095203;28;20031;-69
2020/12/22 00:17:44;;;;;;;17.95;12.73;;;;;;;;;;5113719;28;20007;-69
2020/12/22 00:20:11;;;;;;;17.70;12.75;;;;;;;;;;5113644;28;20035;-69
2020/12/22 00:22:37;;;;;;;18.85;13.52;;;;;;;;;;5113818;28;20598;-69
2020/12/22 00:25:04;;;;;;;18.15;12.50;;;;;;;;;;5095482;28;20072;-69
2020/12/22 00:27:33;;;;;;;18.10;13.18;;;;;;;;;;5095255;28;20030;-71
2020/12/22 00:29:59;;;;;;;20.20;13.30;;;;;;;;;;5113692;28;20499;-69
2020/12/22 00:32:26;;;;;;;18.98;13.27;;;;;;;;;;5113447;28;20075;-70
2020/12/22 00:34:52;;;;;;;17.50;12.30;;;;;;;;;;5113426;28;20023;-69
2020/12/22 00:37:18;;;;;;;17.67;12.27;;;;;;;;;;5095074;28;20118;-69
2020/12/22 00:39:44;;;;;;;18.98;13.93;;;;;;;;;;5095379;28;20390;-70
2020/12/22 00:42:10;;;;;;;18.90;13.40;;;;;;;;;;5112974;28;20496;-69
2020/12/22 00:44:36;;;;;;;18.42;13.07;;;;;;;;;;5113021;28;20552;-70
2020/12/22 00:47:02;;;;;;;19.73;13.43;;;;;;;;;;5094626;28;20055;-70
2020/12/22 00:49:28;;;;;;;20.48;13.05;;;;;;;;;;5112935;28;20042;-70
2020/12/22 00:51:57;;;;;;;21.70;13.55;;;;;;;;;;5094894;28;20023;-70
2020/12/22 00:54:23;;;;;;;20.35;13.20;;;;;;;;;;5113098;28;20042;-70
2020/12/22 00:56:49;;;;;;;19.10;13.15;;;;;;;;;;5113027;28;20061;-71
2020/12/22 00:59:15;;;;;;;18.15;12.80;;;;;;;;;;5094371;28;20046;-72
2020/12/22 01:01:41;;;;;;;18.67;12.90;;;;;;;;;;5112894;28;20102;-69
2020/12/22 01:04:07;;;;;;;18.27;12.65;;;;;;;;;;5112899;28;20029;-69
2020/12/22 01:06:37;;;;;;;18.80;13.00;;;;;;;;;;5112497;28;20023;-70
2020/12/22 01:09:04;;;;;;;21.00;13.90;;;;;;;;;;5112664;28;20032;-71
2020/12/22 01:11:34;;;;;;;19.20;12.93;;;;;;;;;;5112679;28;20027;-69
2020/12/22 01:14:00;;;;;;;20.95;13.43;;;;;;;;;;5111592;28;20031;-71
2020/12/22 01:16:26;;;;;;;20.05;13.63;;;;;;;;;;5111659;28;20049;-71
2020/12/22 01:18:52;;;;;;;19.80;13.63;;;;;;;;;;5093446;28;20026;-70
2020/12/22 01:21:22;;;;;;;21.15;13.70;;;;;;;;;;5093565;28;20023;-71
2020/12/22 01:23:49;;;;;;;17.92;13.25;;;;;;;;;;5110009;28;20019;-70
2020/12/22 01:26:18;;;;;;;19.67;12.77;;;;;;;;;;5111802;28;20012;-71
2020/12/22 01:28:45;;;;;;;19.75;12.93;;;;;;;;;;5093161;28;20129;-70
2020/12/22 01:31:11;;;;;;;20.45;13.80;;;;;;;;;;5111350;28;20046;-70
2020/12/22 01:33:37;;;;;;;21.10;13.32;;;;;;;;;;5112165;28;20486;-69
2020/12/22 01:36:03;;;;;;;20.65;12.85;;;;;;;;;;5111946;28;20500;-70
2020/12/22 01:38:29;;;;;;;19.88;14.02;;;;;;;;;;5093237;28;20020;-70
2020/12/22 01:40:55;;;;;;;20.80;13.63;;;;;;;;;;5093366;28;20576;-68
2020/12/22 01:43:21;;;;;;;17.83;12.05;;;;;;;;;;5093058;28;20463;-70
2020/12/22 01:45:47;;;;;;;18.13;12.43;;;;;;;;;;5111649;28;20031;-71
2020/12/22 01:48:13;;;;;;;19.15;13.60;;;;;;;;;;5089787;28;20039;-71
2020/12/22 01:50:39;;;;;;;19.30;12.40;;;;;;;;;;5089924;28;20107;-69
2020/12/22 01:53:05;;;;;;;21.83;13.45;;;;;;;;;;5090678;28;20528;-69
2020/12/22 01:55:31;;;;;;;19.98;12.82;;;;;;;;;;5090753;28;20648;-69
2020/12/22 01:57:57;;;;;;;19.38;12.95;;;;;;;;;;5090834;28;20538;-72
2020/12/22 02:00:23;;;;;;;18.73;12.95;;;;;;;;;;5089363;28;20019;-70
2020/12/22 02:02:49;;;;;;;18.27;12.52;;;;;;;;;;5090698;28;20048;-69
2020/12/22 02:05:16;;;;;;;18.30;13.23;;;;;;;;;;5090759;28;20085;-69
2020/12/22 02:07:42;;;;;;;19.23;12.93;;;;;;;;;;5090049;28;20032;-70
2020/12/22 02:10:08;;;;;;;21.20;12.88;;;;;;;;;;5090677;28;20099;-69
2020/12/22 02:12:40;;;;;;;17.90;12.40;;;;;;;;;;5090129;28;20031;-72
2020/12/22 02:15:07;;;;;;;17.10;12.20;;;;;;;;;;5088718;28;20491;-73
2020/12/22 02:17:34;;;;;;;20.02;12.77;;;;;;;;;;5089735;28;20799;-70
2020/12/22 02:20:00;;;;;;;18.45;12.73;;;;;;;;;;5088761;28;20604;-70
2020/12/22 02:22:26;;;;;;;18.02;12.52;;;;;;;;;;5090070;28;20510;-71
2020/12/22 02:24:52;;;;;;;16.40;12.50;;;;;;;;;;5090437;28;20042;-72
2020/12/22 02:27:18;;;;;;;17.90;12.25;;;;;;;;;;5090397;28;20020;-70
2020/12/22 02:29:44;;;;;;;17.83;12.05;;;;;;;;;;5090472;28;20027;-71
2020/12/22 02:32:10;;;;;;;18.02;12.27;;;;;;;;;;5089280;28;20103;-70
2020/12/22 02:34:36;;;;;;;17.67;11.95;;;;;;;;;;5090685;28;20020;-69
2020/12/22 02:37:02;;;;;;;20.80;12.65;;;;;;;;;;5088880;28;20630;-70
2020/12/22 02:39:28;;;;;;;19.35;11.88;;;;;;;;;;5090190;28;20301;-70
2020/12/22 02:41:54;;;;;;;17.15;11.75;;;;;;;;;;5090452;28;20019;-69
2020/12/22 02:44:20;;;;;;;27.05;16.75;;;;;;;;;;5089117;28;20089;-70
2020/12/22 02:46:46;;;;;;;28.30;17.88;;;;;;;;;;5094050;28;20136;-70
2020/12/22 02:49:12;;;;;;;25.15;16.77;;;;;;;;;;5092101;28;20028;-70
2020/12/22 02:51:38;;;;;;;24.17;15.63;;;;;;;;;;5110687;28;20153;-69
2020/12/22 02:54:04;;;;;;;24.17;15.15;;;;;;;;;;5110549;28;20020;-70
2020/12/22 02:56:30;;;;;;;21.42;14.55;;;;;;;;;;5110239;28;20028;-70
2020/12/22 02:58:57;;;;;;;21.33;14.25;;;;;;;;;;5091951;28;20034;-70
2020/12/22 03:01:23;;;;;;;23.40;14.18;;;;;;;;;;5111269;28;20467;-69
2020/12/22 03:03:49;;;;;;;22.35;14.52;;;;;;;;;;5111318;28;20023;-71
2020/12/22 03:06:15;;;;;;;20.27;13.07;;;;;;;;;;5093335;28;20047;-69
2020/12/22 03:08:41;;;;;;;22.58;14.20;;;;;;;;;;5092978;28;20118;-69
2020/12/22 03:11:07;;;;;;;18.95;13.70;;;;;;;;;;5111238;28;20019;-69
2020/12/22 03:13:33;;;;;;;19.95;13.35;;;;;;;;;;5111176;28;20024;-69
2020/12/22 03:16:00;;;;;;;19.60;13.25;;;;;;;;;;5111223;28;20073;-70
2020/12/22 03:18:26;;;;;;;19.55;13.70;;;;;;;;;;5111183;28;20067;-72
2020/12/22 03:20:52;;;;;;;18.40;13.50;;;;;;;;;;5092899;28;20031;-71
2020/12/22 03:23:18;;;;;;;18.42;13.52;;;;;;;;;;5111439;28;20012;-71
2020/12/22 03:25:44;;;;;;;19.40;13.38;;;;;;;;;;5114904;28;20027;-71
2020/12/22 03:28:10;;;;;;;20.33;13.30;;;;;;;;;;5114690;28;20088;-71
2020/12/22 03:30:36;;;;;;;19.27;12.48;;;;;;;;;;5114704;28;20024;-70
2020/12/22 03:33:02;;;;;;;22.35;13.77;;;;;;;;;;5096153;28;20092;-72
2020/12/22 03:35:29;;;;;;;19.95;13.18;;;;;;;;;;5114475;28;20397;-72
2020/12/22 03:37:55;;;;;;;18.85;13.43;;;;;;;;;;5114697;28;20379;-73
2020/12/22 03:40:21;;;;;;;20.83;12.88;;;;;;;;;;5114619;28;20110;-71
2020/12/22 03:42:47;;;;;;;19.52;12.68;;;;;;;;;;5114640;28;20016;-71
2020/12/22 03:45:16;;;;;;;19.33;12.73;;;;;;;;;;5114494;28;20027;-72
2020/12/22 03:47:42;;;;;;;17.90;12.32;;;;;;;;;;5114254;28;20040;-70
2020/12/22 03:50:08;;;;;;;17.60;11.70;;;;;;;;;;5096143;28;20459;-71
2020/12/22 03:52:36;;;;;;;16.52;12.50;;;;;;;;;;5096104;28;20011;-71
2020/12/22 03:55:02;;;;;;;18.30;12.88;;;;;;;;;;5114414;28;20095;-71
2020/12/22 03:57:28;;;;;;;16.35;11.32;;;;;;;;;;5095380;28;20019;-71
2020/12/22 03:59:54;;;;;;;17.25;11.90;;;;;;;;;;5112931;28;20024;-70
2020/12/22 04:02:20;;;;;;;17.42;12.18;;;;;;;;;;5094888;28;20679;-70
2020/12/22 04:04:46;;;;;;;23.48;12.32;;;;;;;;;;5113234;28;20227;-73
2020/12/22 04:07:12;;;;;;;20.38;11.73;;;;;;;;;;5113066;28;20020;-73
2020/12/22 04:09:38;;;;;;;18.08;11.95;;;;;;;;;;5112884;28;20096;-72
2020/12/22 04:12:04;;;;;;;20.70;12.20;;;;;;;;;;5113103;28;20026;-72
2020/12/22 04:14:30;;;;;;;23.40;12.57;;;;;;;;;;5112950;28;20360;-71
2020/12/22 04:16:56;;;;;;;23.90;12.38;;;;;;;;;;5094682;28;20036;-74
2020/12/22 04:19:23;;;;;;;16.55;11.35;;;;;;;;;;5112726;28;20015;-73
2020/12/22 04:21:49;;;;;;;16.70;11.60;;;;;;;;;;5112931;28;20076;-74
2020/12/22 04:24:15;;;;;;;19.63;11.63;;;;;;;;;;5094511;28;20509;-73
2020/12/22 04:26:41;;;;;;;16.67;11.75;;;;;;;;;;5112772;28;20028;-74
2020/12/22 04:29:07;;;;;;;19.48;12.13;;;;;;;;;;5094097;28;20024;-74
2020/12/22 04:31:33;;;;;;;15.77;11.18;;;;;;;;;;5112636;28;20016;-74
2020/12/22 04:33:59;;;;;;;17.38;12.25;;;;;;;;;;5094139;28;20024;-70
2020/12/22 04:36:26;;;;;;;34.03;12.35;;;;;;;;;;5094041;28;20031;-72
2020/12/22 04:38:52;;;;;;;20.92;12.73;;;;;;;;;;5094407;28;20032;-70
2020/12/22 04:41:19;;;;;;;18.45;11.95;;;;;;;;;;5112821;28;20016;-70
2020/12/22 04:43:46;;;;;;;18.77;11.90;;;;;;;;;;5112821;28;20019;-71
2020/12/22 04:46:16;;;;;;;20.38;12.30;;;;;;;;;;5112956;28;20466;-71
2020/12/22 04:48:42;;;;;;;16.55;12.10;;;;;;;;;;5094201;28;20062;-71
2020/12/22 04:51:09;;;;;;;16.10;11.02;;;;;;;;;;5112728;28;20022;-70
2020/12/22 04:53:35;;;;;;;16.95;12.20;;;;;;;;;;5112616;28;20023;-71
2020/12/22 04:56:02;;;;;;;16.42;11.60;;;;;;;;;;5112647;28;20095;-71
2020/12/22 04:58:29;;;;;;;17.48;11.65;;;;;;;;;;5112303;28;20500;-70
2020/12/22 05:00:56;;;;;;;17.17;12.07;;;;;;;;;;5112509;28;20399;-70
2020/12/22 05:03:22;;;;;;;17.60;11.20;;;;;;;;;;5112470;28;20043;-70
2020/12/22 05:05:48;;;;;;;19.67;12.18;;;;;;;;;;5112492;28;20098;-71
2020/12/22 05:08:14;;;;;;;18.20;12.13;;;;;;;;;;5112864;28;20087;-71
2020/12/22 05:10:44;;;;;;;16.30;11.73;;;;;;;;;;5094722;28;20023;-70
2020/12/22 05:13:10;;;;;;;20.20;12.38;;;;;;;;;;5112967;28;20512;-70
2020/12/22 05:15:40;;;;;;;17.10;12.02;;;;;;;;;;5112832;28;20031;-71
2020/12/22 05:18:07;;;;;;;17.48;11.57;;;;;;;;;;5112855;28;20051;-71
2020/12/22 05:20:33;;;;;;;17.80;11.95;;;;;;;;;;5094503;28;20110;-71
2020/12/22 05:22:59;;;;;;;17.88;11.93;;;;;;;;;;5112718;28;20148;-71
2020/12/22 05:25:27;;;;;;;16.25;12.00;;;;;;;;;;5112522;28;20039;-71
2020/12/22 05:27:54;;;;;;;16.27;11.82;;;;;;;;;;5112277;28;20015;-70
2020/12/22 05:30:20;;;;;;;16.58;11.45;;;;;;;;;;5112366;28;20065;-70
2020/12/22 05:32:51;;;;;;;17.80;11.23;;;;;;;;;;5112405;28;20042;-70
2020/12/22 05:35:17;;;;;;;18.17;11.65;;;;;;;;;;5112322;28;20024;-71
2020/12/22 05:37:44;;;;;;;15.82;10.93;;;;;;;;;;5112328;28;20500;-71
2020/12/22 05:40:11;;;;;;;16.30;11.73;;;;;;;;;;5094074;28;20105;-71
2020/12/22 05:42:37;;;;;;;17.17;11.18;;;;;;;;;;5112321;28;20065;-69
2020/12/22 05:45:04;;;;;;;16.55;11.75;;;;;;;;;;5112210;28;20027;-69
2020/12/22 05:47:30;;;;;;;18.55;12.07;;;;;;;;;;5111219;28;20055;-70
2020/12/22 05:49:57;;;;;;;17.27;11.13;;;;;;;;;;5112138;28;20035;-69
2020/12/22 05:52:24;;;;;;;17.45;11.95;;;;;;;;;;5112132;28;20023;-70
2020/12/22 05:54:54;;;;;;;17.52;11.48;;;;;;;;;;5111411;28;20024;-70
2020/12/22 05:57:30;;;;;;;19.05;12.02;;;;;;;;;;5111393;28;20026;-70
2020/12/22 05:59:56;;;;;;;18.80;11.63;;;;;;;;;;5111217;28;20555;-71
2020/12/22 06:02:26;;;;;;;17.42;12.15;;;;;;;;;;5111383;28;20034;-70
2020/12/22 06:04:54;;;;;;;15.25;11.02;;;;;;;;;;5111352;28;20039;-70
2020/12/22 06:07:20;;;;;;;15.60;11.32;;;;;;;;;;5111313;28;20026;-71
2020/12/22 06:09:47;;;;;;;16.77;10.93;;;;;;;;;;5073770;28;20473;-71
2020/12/22 06:12:13;;;;;;;17.38;11.95;;;;;;;;;;5072954;28;20387;-71
2020/12/22 06:14:42;;;;;;;16.67;11.57;;;;;;;;;;5091009;28;20522;-70
2020/12/22 06:17:10;;;;;;;16.10;11.30;;;;;;;;;;5090904;28;20118;-70
2020/12/22 06:19:36;;;;;;;17.02;11.93;;;;;;;;;;5090744;28;20020;-71
2020/12/22 06:22:03;;;;;;;18.80;12.82;;;;;;;;;;5090801;28;20417;-71
2020/12/22 06:24:29;;;;;;;15.52;11.20;;;;;;;;;;5091254;28;20169;-70
2020/12/22 06:27:05;;;;;;;16.50;11.45;;;;;;;;;;5073427;28;20016;-70
2020/12/22 06:29:32;;;;;;;16.30;11.57;;;;;;;;;;5073334;28;20036;-72
2020/12/22 06:32:17;;;;;;;17.05;11.98;;;;;;;;;;5091408;28;20020;-71
2020/12/22 06:34:43;;;;;;;15.35;10.98;;;;;;;;;;5091464;28;20024;-70
2020/12/22 06:37:10;;;;;;;17.40;12.75;;;;;;;;;;5091390;28;20031;-71
2020/12/22 06:39:40;;;;;;;16.40;11.27;;;;;;;;;;5091203;28;20095;-71
2020/12/22 06:42:06;;;;;;;16.58;11.82;;;;;;;;;;5091071;28;20082;-71
2020/12/22 06:44:32;;;;;;;18.60;11.60;;;;;;;;;;5091079;28;20082;-71
2020/12/22 06:46:59;;;;;;;16.75;11.73;;;;;;;;;;5073057;28;20546;-71
2020/12/22 06:49:44;;;;;;;17.63;12.13;;;;;;;;;;5072933;28;20033;-71
2020/12/22 06:52:28;;;;;;;15.68;11.23;;;;;;;;;;5091112;28;20026;-71
2020/12/22 06:54:54;;;;;;;16.50;11.77;;;;;;;;;;5091136;28;20024;-71
2020/12/22 06:57:39;;;;;;;16.55;11.38;;;;;;;;;;5073632;28;20053;-71
2020/12/22 07:00:05;;;;;;;17.05;11.20;;;;;;;;;;5095019;28;20035;-72
2020/12/22 07:02:31;;;;;;;16.20;11.30;;;;;;;;;;5094885;28;20020;-69
2020/12/22 07:04:58;;;;;;;16.67;11.05;;;;;;;;;;5094829;28;20024;-69
2020/12/22 07:07:24;;;;;;;16.95;11.95;;;;;;;;;;5076454;28;20500;-70
2020/12/22 07:09:59;;;;;;;16.73;11.50;;;;;;;;;;5076461;28;20043;-70
2020/12/22 07:12:26;;;;;;;15.23;10.65;;;;;;;;;;5094859;28;20025;-70
2020/12/22 07:14:52;;;;;;;16.20;11.43;;;;;;;;;;5076567;28;20038;-69
2020/12/22 07:17:19;;;;;;;17.58;11.02;;;;;;;;;;5094751;28;20017;-69
2020/12/22 07:19:55;;;;;;;17.42;11.38;;;;;;;;;;5094665;28;20024;-70
2020/12/22 07:22:23;;;;;;;15.65;10.27;;;;;;;;;;5094474;28;20102;-70
2020/12/22 07:24:49;;;;;;;17.75;10.60;;;;;;;;;;5094322;28;20562;-70
2020/12/22 07:27:15;;;;;;;14.80;10.23;;;;;;;;;;5076362;28;20097;-69
2020/12/22 07:29:42;;;;;;;15.80;10.82;;;;;;;;;;5094375;28;20040;-70
2020/12/22 07:32:09;;;;;;;15.15;10.07;;;;;;;;;;5094417;28;20423;-70
2020/12/22 07:34:36;;;;;;;14.77;10.15;;;;;;;;;;5094420;28;20024;-70
2020/12/22 07:37:06;;;;;;;15.80;10.00;;;;;;;;;;5076378;28;20008;-71
2020/12/22 07:39:33;;;;;;;50.90;10.85;;;;;;;;;;5094055;28;20021;-70
2020/12/22 07:42:11;;;;;;;13.32;9.77;;;;;;;;;;5094344;28;20103;-70
2020/12/22 07:44:37;;;;;;;15.20;9.95;;;;;;;;;;5094207;28;20028;-70
2020/12/22 07:47:04;;;;;;;14.10;10.13;;;;;;;;;;5075673;28;20047;-70
2020/12/22 07:49:30;;;;;;;13.45;9.55;;;;;;;;;;5075757;28;20039;-72
2020/12/22 07:51:56;;;;;;;14.35;9.23;;;;;;;;;;5094078;28;20524;-72
2020/12/22 07:54:25;;;;;;;15.35;10.68;;;;;;;;;;5093836;28;20028;-70
2020/12/22 07:56:52;;;;;;;16.02;10.10;;;;;;;;;;5093793;28;20012;-71
2020/12/22 07:59:18;;;;;;;14.93;9.55;;;;;;;;;;5083803;28;20061;-71
2020/12/22 08:01:45;;;;;;;14.10;9.65;;;;;;;;;;5114019;28;20023;-70
2020/12/22 08:04:14;;;;;;;12.10;9.07;;;;;;;;;;5114268;28;20459;-71
2020/12/22 08:06:41;;;;;;;14.45;9.85;;;;;;;;;;5114167;28;20022;-71
2020/12/22 08:09:07;;;;;;;14.07;10.25;;;;;;;;;;5094638;28;20032;-71
2020/12/22 08:11:35;;;;;;;15.38;9.43;;;;;;;;;;5095463;28;20515;-68
2020/12/22 08:14:01;;;;;;;14.25;9.48;;;;;;;;;;5113993;28;20026;-71
2020/12/22 08:16:29;;;;;;;18.17;9.00;;;;;;;;;;5095632;28;20026;-69
2020/12/22 08:18:55;;;;;;;13.13;9.02;;;;;;;;;;5113719;28;20027;-70
2020/12/22 08:21:21;;;;;;;15.27;9.30;;;;;;;;;;5095459;28;20119;-70
2020/12/22 08:23:48;;;;;;;11.55;8.15;;;;;;;;;;5095249;28;20642;-69
2020/12/22 08:26:17;;;;;;;13.68;8.77;;;;;;;;;;5113734;28;20028;-69
2020/12/22 08:28:50;;;;;;;13.88;8.77;;;;;;;;;;5113370;28;20026;-71
2020/12/22 08:31:18;;;;;;;14.88;10.02;;;;;;;;;;5095295;28;20529;-71
2020/12/22 08:33:50;;;;;;;14.77;10.40;;;;;;;;;;5113251;28;20047;-70
2020/12/22 08:36:16;;;;;;;16.60;10.27;;;;;;;;;;5095091;28;20024;-71
2020/12/22 08:38:42;;;;;;;14.25;9.15;;;;;;;;;;5113564;28;20310;-71
2020/12/22 08:41:13;;;;;;;19.70;10.65;;;;;;;;;;5094635;28;20024;-70
2020/12/22 08:43:46;;;;;;;17.10;10.35;;;;;;;;;;5094751;28;20358;-69
2020/12/22 08:46:12;;;;;;;16.48;10.35;;;;;;;;;;5094993;28;20485;-69
2020/12/22 08:48:38;;;;;;;14.52;9.10;;;;;;;;;;5112864;28;20047;-69
2020/12/22 08:51:04;;;;;;;16.05;9.02;;;;;;;;;;5113153;28;20016;-70
2020/12/22 08:53:30;;;;;;;14.65;9.90;;;;;;;;;;5112902;28;20039;-70
2020/12/22 08:56:06;;;;;;;14.07;10.20;;;;;;;;;;5113049;28;20020;-69
2020/12/22 08:58:32;;;;;;;15.50;10.52;;;;;;;;;;5110964;28;20104;-70
2020/12/22 09:01:00;;;;;;;15.23;9.48;;;;;;;;;;5074650;28;20035;-70
2020/12/22 09:03:27;;;;;;;14.57;10.75;;;;;;;;;;5074311;28;20024;-69
2020/12/22 09:05:53;;;;;;;14.93;10.00;;;;;;;;;;5092610;28;20533;-71
2020/12/22 09:08:19;;;;;;;15.25;10.50;;;;;;;;;;5092161;28;20094;-70
2020/12/22 09:10:48;;;;;;;17.70;11.43;;;;;;;;;;5092326;28;20107;-70
2020/12/22 09:13:16;;;;;;;16.40;10.73;;;;;;;;;;5092444;28;20171;-70
2020/12/22 09:15:55;;;;;;;17.05;10.43;;;;;;;;;;5092231;28;20024;-71
2020/12/22 09:18:21;;;;;;;15.63;10.63;;;;;;;;;;5092036;28;20031;-71
2020/12/22 09:21:03;;;;;;;17.50;10.73;;;;;;;;;;5073849;28;20412;-71
2020/12/22 09:23:29;;;;;;;14.70;10.00;;;;;;;;;;5092052;28;20612;-70
2020/12/22 09:25:55;;;;;;;13.90;10.07;;;;;;;;;;5092119;28;20645;-70
2020/12/22 09:28:21;;;;;;;14.88;9.98;;;;;;;;;;5095903;28;20020;-71
2020/12/22 09:30:47;;;;;;;15.05;11.35;;;;;;;;;;5094227;28;20031;-70
2020/12/22 09:33:13;;;;;;;17.88;11.98;;;;;;;;;;5094032;28;20020;-71
2020/12/22 09:35:39;;;;;;;14.55;9.68;;;;;;;;;;5112285;28;20035;-71
2020/12/22 09:38:06;;;;;;;15.38;10.20;;;;;;;;;;5112143;28;20103;-70
2020/12/22 09:40:32;;;;;;;15.63;10.57;;;;;;;;;;5112299;28;20061;-70
2020/12/22 09:42:58;;;;;;;14.55;10.40;;;;;;;;;;5112265;28;20020;-68
2020/12/22 09:45:24;;;;;;;15.95;11.43;;;;;;;;;;5112110;28;20031;-71
2020/12/22 09:47:50;;;;;;;17.38;12.38;;;;;;;;;;5111778;28;20078;-69
2020/12/22 09:50:18;;;;;;;17.70;11.98;;;;;;;;;;5111862;28;20044;-69
2020/12/22 09:52:44;;;;;;;16.30;12.00;;;;;;;;;;5112136;28;20037;-70
2020/12/22 09:55:10;;;;;;;15.60;10.50;;;;;;;;;;5112111;28;20471;-69
2020/12/22 09:57:36;;;;;;;17.38;11.80;;;;;;;;;;5111767;28;20019;-68
2020/12/22 10:00:03;;;;;;;15.98;10.52;;;;;;;;;;5093597;28;20118;-68
2020/12/22 10:02:29;;;;;;;14.02;10.02;;;;;;;;;;5111855;28;20053;-73
2020/12/22 10:04:55;;;;;;;14.13;10.30;;;;;;;;;;5111977;28;20044;-71
2020/12/22 10:07:21;;;;;;;15.32;11.23;;;;;;;;;;5111954;28;20020;-71
2020/12/22 10:09:47;;;;;;;13.23;9.63;;;;;;;;;;5073902;28;20442;-73
2020/12/22 10:12:13;;;;;;;15.27;10.95;;;;;;;;;;5091450;28;20419;-73
2020/12/22 10:14:39;;;;;;;14.77;10.48;;;;;;;;;;5091377;28;20573;-72
2020/12/22 10:17:06;;;;;;;15.48;9.25;;;;;;;;;;5073284;28;20559;-70
2020/12/22 10:19:33;;;;;;;15.52;11.07;;;;;;;;;;5091450;28;20031;-73
2020/12/22 10:21:59;;;;;;;14.85;10.38;;;;;;;;;;5110036;28;20033;-68
2020/12/22 10:24:25;;;;;;;15.38;10.35;;;;;;;;;;5111681;28;20024;-69
2020/12/22 10:26:51;;;;;;;16.02;9.90;;;;;;;;;;5111586;28;20051;-71
2020/12/22 10:29:17;;;;;;;14.80;10.45;;;;;;;;;;5092815;28;20032;-71
2020/12/22 10:31:43;;;;;;;16.00;10.60;;;;;;;;;;5111360;28;20023;-69
2020/12/22 10:34:09;;;;;;;14.82;9.95;;;;;;;;;;5115237;28;20034;-71
2020/12/22 10:36:35;;;;;;;15.25;10.13;;;;;;;;;;5097488;28;20016;-71
2020/12/22 10:39:01;;;;;;;13.57;9.93;;;;;;;;;;5115746;28;20024;-71
2020/12/22 10:41:27;;;;;;;15.52;10.55;;;;;;;;;;5115602;28;20030;-71
2020/12/22 10:43:53;;;;;;;13.80;10.05;;;;;;;;;;5115892;28;20096;-71
2020/12/22 10:46:20;;;;;;;14.82;9.77;;;;;;;;;;5115215;28;20023;-70
2020/12/22 10:48:46;;;;;;;16.65;10.80;;;;;;;;;;5095801;28;20050;-72
2020/12/22 10:51:12;;;;;;;13.95;10.25;;;;;;;;;;5097265;28;20516;-71
2020/12/22 10:53:39;;;;;;;14.50;10.55;;;;;;;;;;5115410;28;20114;-71
2020/12/22 10:56:12;;;;;;;15.70;10.98;;;;;;;;;;5115453;28;20019;-71
2020/12/22 10:58:38;;;;;;;19.25;12.25;;;;;;;;;;5115112;28;20072;-68
2020/12/22 11:01:04;;;;;;;18.30;10.68;;;;;;;;;;5115435;28;20027;-67
2020/12/22 11:03:30;;;;;;;17.88;11.40;;;;;;;;;;5115250;28;20049;-67
2020/12/22 11:08:34;;;;;;;16.45;11.77;;;;;;;;;;5115361;28;20716;-68
2020/12/22 11:11:01;;;;;;;16.40;11.25;;;;;;;;;;5097001;28;20039;-68
2020/12/22 11:13:27;;;;;;;18.13;11.38;;;;;;;;;;5115263;28;20057;-68
2020/12/22 11:15:53;;;;;;;17.95;12.00;;;;;;;;;;5115170;28;20570;-70
2020/12/22 11:18:19;;;;;;;17.88;11.63;;;;;;;;;;5096379;28;20042;-68
2020/12/22 11:20:45;;;;;;;18.63;11.60;;;;;;;;;;5096629;28;20012;-68
2020/12/22 11:23:11;;;;;;;19.73;13.25;;;;;;;;;;5114975;28;20065;-69
2020/12/22 11:25:37;;;;;;;17.30;11.27;;;;;;;;;;5114844;28;20055;-68
2020/12/22 11:28:03;;;;;;;19.55;12.77;;;;;;;;;;5096471;28;20020;-71
2020/12/22 11:30:29;;;;;;;19.67;12.80;;;;;;;;;;5114989;28;20513;-75
2020/12/22 11:32:55;;;;;;;20.80;12.73;;;;;;;;;;5114708;28;20455;-75
2020/12/22 11:35:21;;;;;;;22.55;13.73;;;;;;;;;;5114687;28;20055;-71
2020/12/22 11:37:47;;;;;;;19.77;12.80;;;;;;;;;;5114184;28;20016;-71
2020/12/22 11:40:14;;;;;;;24.52;13.55;;;;;;;;;;5114361;28;20039;-70
2020/12/22 11:42:40;;;;;;;20.27;13.38;;;;;;;;;;5114731;28;20020;-70
2020/12/22 11:45:06;;;;;;;22.10;12.15;;;;;;;;;;5113365;28;20455;-70
2020/12/22 11:47:33;;;;;;;20.02;13.20;;;;;;;;;;5114008;28;20048;-69
2020/12/22 11:49:59;;;;;;;19.33;13.35;;;;;;;;;;5114183;28;20034;-69
2020/12/22 11:52:25;;;;;;;21.63;14.45;;;;;;;;;;5114380;28;20031;-70
2020/12/22 11:54:51;;;;;;;22.25;13.82;;;;;;;;;;5114359;28;20028;-70
2020/12/22 11:57:17;;;;;;;20.92;13.27;;;;;;;;;;5114325;28;20037;-69
2020/12/22 11:59:43;;;;;;;20.25;13.65;;;;;;;;;;5114077;28;20077;-69
2020/12/22 12:02:09;;;;;;;22.48;14.77;;;;;;;;;;5114243;28;20031;-71
2020/12/22 12:04:35;;;;;;;22.35;14.43;;;;;;;;;;5114058;28;20414;-72
2020/12/22 12:07:01;;;;;;;25.50;13.55;;;;;;;;;;5113882;28;20027;-72
2020/12/22 12:09:28;;;;;;;21.67;13.50;;;;;;;;;;5113584;28;20032;-71
2020/12/22 12:11:54;;;;;;;22.65;14.30;;;;;;;;;;5113962;28;20398;-70
2020/12/22 12:14:20;;;;;;;26.15;13.95;;;;;;;;;;5113883;28;20023;-70
2020/12/22 12:16:50;;;;;;;23.77;14.48;;;;;;;;;;5113832;28;20386;-70
2020/12/22 12:19:17;;;;;;;23.63;14.40;;;;;;;;;;5113942;28;20540;-69
2020/12/22 12:21:43;;;;;;;25.27;16.48;;;;;;;;;;5095317;28;20484;-71
2020/12/22 12:24:09;;;;;;;23.33;15.10;;;;;;;;;;5113656;28;20024;-69
2020/12/22 12:26:36;;;;;;;23.17;14.55;;;;;;;;;;5095536;28;20014;-69
2020/12/22 12:29:02;;;;;;;24.58;15.88;;;;;;;;;;5113548;28;20047;-68
2020/12/22 12:31:30;;;;;;;24.90;15.43;;;;;;;;;;5113446;28;20378;-70
2020/12/22 12:33:56;;;;;;;26.13;16.60;;;;;;;;;;5113581;28;20045;-70
2020/12/22 12:36:23;;;;;;;23.55;14.88;;;;;;;;;;5113485;28;20023;-70
2020/12/22 12:38:49;;;;;;;25.10;15.60;;;;;;;;;;5113533;28;20028;-70
2020/12/22 12:41:15;;;;;;;28.35;17.45;;;;;;;;;;5113553;28;20065;-71
2020/12/22 12:43:41;;;;;;;24.88;15.70;;;;;;;;;;5095009;28;20028;-71
2020/12/22 12:46:07;;;;;;;28.30;16.30;;;;;;;;;;5113470;28;20016;-71
2020/12/22 12:48:34;;;;;;;25.27;16.20;;;;;;;;;;5113155;28;20364;-70
2020/12/22 12:51:00;;;;;;;23.17;14.43;;;;;;;;;;5113336;28;20019;-71
2020/12/22 12:53:26;;;;;;;51.97;16.40;;;;;;;;;;5113269;28;20028;-70
2020/12/22 12:55:52;;;;;;;28.10;16.35;;;;;;;;;;5112816;28;20501;-72
2020/12/22 12:58:18;;;;;;;27.48;16.05;;;;;;;;;;5112988;28;20491;-70
2020/12/22 13:00:45;;;;;;;27.58;16.10;;;;;;;;;;5092730;28;20032;-72
2020/12/22 13:03:11;;;;;;;26.35;16.25;;;;;;;;;;5092716;28;20042;-71
2020/12/22 13:05:37;;;;;;;27.42;16.58;;;;;;;;;;5074493;28;20138;-71
2020/12/22 13:08:03;;;;;;;26.77;15.95;;;;;;;;;;5074447;28;20486;-71
2020/12/22 13:10:29;;;;;;;26.05;16.08;;;;;;;;;;5074718;28;20454;-71
2020/12/22 13:12:55;;;;;;;26.90;15.98;;;;;;;;;;5074407;28;20077;-71
2020/12/22 13:15:21;;;;;;;25.58;15.05;;;;;;;;;;5074352;28;20035;-72
2020/12/22 13:17:47;;;;;;;27.27;15.95;;;;;;;;;;5092215;28;20024;-71
2020/12/22 13:20:13;;;;;;;24.55;15.68;;;;;;;;;;5074033;28;20021;-71
2020/12/22 13:22:39;;;;;;;31.60;17.20;;;;;;;;;;5092255;28;20020;-70
2020/12/22 13:25:05;;;;;;;26.17;15.45;;;;;;;;;;5074033;28;20020;-71
2020/12/22 13:27:32;;;;;;;27.63;15.88;;;;;;;;;;5092110;28;20031;-71
2020/12/22 13:29:58;;;;;;;27.63;16.60;;;;;;;;;;5091911;28;20036;-71
2020/12/22 13:32:24;;;;;;;24.70;15.73;;;;;;;;;;5092176;28;20044;-71
2020/12/22 13:34:50;;;;;;;31.17;16.15;;;;;;;;;;5073881;28;20036;-71
2020/12/22 13:37:16;;;;;;;29.85;17.00;;;;;;;;;;5091819;28;20024;-71
2020/12/22 13:39:42;;;;;;;27.75;16.13;;;;;;;;;;5091820;28;20012;-71
2020/12/22 13:42:08;;;;;;;28.58;16.70;;;;;;;;;;5091835;28;20020;-71
2020/12/22 13:44:34;;;;;;;25.05;15.23;;;;;;;;;;5073843;28;20024;-71
2020/12/22 13:47:07;;;;;;;28.58;16.35;;;;;;;;;;5091559;28;20249;-71
2020/12/22 13:49:33;;;;;;;25.95;15.40;;;;;;;;;;5073383;28;20036;-71
2020/12/22 13:51:59;;;;;;;30.42;16.63;;;;;;;;;;5091695;28;20020;-71
2020/12/22 13:54:25;;;;;;;26.65;15.70;;;;;;;;;;5091763;28;20028;-71
2020/12/22 13:56:51;;;;;;;28.05;15.18;;;;;;;;;;5073491;28;20020;-71
2020/12/22 13:59:18;;;;;;;25.85;15.80;;;;;;;;;;5099750;28;20123;-70
2020/12/22 14:01:44;;;;;;;26.33;15.35;;;;;;;;;;5112202;28;20072;-71
2020/12/22 14:04:10;;;;;;;26.55;15.93;;;;;;;;;;5112059;28;20118;-71
2020/12/22 14:06:36;;;;;;;27.38;15.23;;;;;;;;;;5111665;28;20051;-71
2020/12/22 14:09:03;;;;;;;25.33;15.65;;;;;;;;;;5110819;28;20031;-71
2020/12/22 14:11:29;;;;;;;23.08;13.82;;;;;;;;;;5093235;28;20020;-71
2020/12/22 14:13:55;;;;;;;28.08;14.70;;;;;;;;;;5111871;28;20058;-70
2020/12/22 14:16:21;;;;;;;23.50;13.77;;;;;;;;;;5111721;28;20093;-71
2020/12/22 14:18:48;;;;;;;25.08;14.52;;;;;;;;;;5111292;28;20019;-71